Latest Coastal Weather Observations for Gunn Point

IDD60701

Issued at 7:21 pm CST Sunday 15 September 2019 (issued every 10 minutes, with the page automatically refreshed every 10 minutes)

About coastal observations | Map of coastal stations | Coastal observations for NT | Marine services | Other Formats
Station Details ID: 014023 Name: GUNN POINT Lat: -12.25 Lon: 131.04 Height: 25.0 m
Data from the previous 72 hours. | See also: Recent months for locations in Northern Territory
Date/Time
CST
Wind Sea
Height
m
Swell Vis
km
Cloud Weather Temp
°C
Press
hPa
Rain since
9am
mm
Dir  Spd
kts
Gust
kts
Height
m
Period
s
Dir
15/07:00pm ENE 4 8 - - - - - - - 25.3 1013.4 -
15/06:30pm NE 5 11 - - - - - - - 25.8 1013.1 -
15/06:00pm NE 7 13 - - - - - - - 26.5 1012.9 -
15/05:30pm NE 9 13 - - - - - - - 27.0 1012.9 -
15/05:00pm ENE 8 16 - - - - - - - 28.1 1012.8 -
15/04:30pm NE 8 15 - - - - - - - 28.3 1012.8 -
15/04:00pm NE 8 14 - - - - - - - 28.8 1012.8 -
15/03:30pm NNE 8 13 - - - - - - - 28.7 1012.7 -
15/03:00pm NE 9 16 - - - - - - - 28.5 1012.8 -
15/02:30pm ENE 8 16 - - - - - - - 29.8 1012.9 -
15/02:00pm ENE 9 14 - - - - - - - 29.1 1013.3 -
15/01:30pm ENE 8 14 - - - - - - - 29.8 1013.6 -
15/01:00pm ENE 8 16 - - - - - - - 30.0 1014.0 -
15/12:30pm E 11 21 - - - - - - - 28.9 1014.4 -
15/12:00pm E 10 18 - - - - - - - 29.3 1014.8 -
15/11:30am E 10 19 - - - - - - - 30.1 1015.0 -
15/11:00am ESE 10 17 - - - - - - - 29.3 1015.5 -
15/10:30am E 12 21 - - - - - - - 28.4 1016.0 -
15/10:00am E 9 19 - - - - - - - 28.2 1016.4 -
15/09:30am ESE 10 17 - - - - - - - 27.1 1016.7 -
15/09:00am ESE 6 14 - - - - - - - 27.1 1016.7 0.0
15/08:30am SE 4 8 - - - - - - - 25.3 1016.7 0.0
15/08:00am SE 2 5 - - - - - - - 22.6 1016.6 0.0
15/07:30am CALM 0 0 - - - - - - - 19.8 1016.3 0.0
15/07:00am CALM 0 0 - - - - - - - 15.8 1016.1 0.0
15/06:30am CALM 0 0 - - - - - - - 16.3 1015.9 0.0
15/06:00am CALM 0 0 - - - - - - - 17.1 1015.7 0.0
15/05:30am CALM 0 0 - - - - - - - 17.7 1015.4 0.0
15/05:00am CALM 0 0 - - - - - - - 18.5 1015.4 0.0
15/04:30am CALM 0 0 - - - - - - - 19.0 1015.4 0.0
15/04:00am CALM 0 0 - - - - - - - 19.4 1015.3 0.0
15/03:30am CALM 0 0 - - - - - - - 20.4 1015.1 0.0
15/03:00am CALM 0 0 - - - - - - - 20.7 1015.3 0.0
15/02:30am CALM 0 0 - - - - - - - 19.7 1015.2 0.0
15/02:00am CALM 0 0 - - - - - - - 20.4 1015.2 0.0
15/01:30am CALM 0 0 - - - - - - - 20.9 1015.6 0.0
15/01:00am SSE 1 5 - - - - - - - 21.2 1015.5 0.0
15/12:30am SSE 2 6 - - - - - - - 22.0 1015.4 0.0
15/12:00am ENE 2 4 - - - - - - - 21.1 1015.0 0.0
 
Date/Time
CST
Wind Sea
Height
m
Swell Vis
km
Cloud Weather Temp
°C
Press
hPa
Rain since
9am
mm
Dir  Spd
kts
Gust
kts
Height
m
Period
s
Dir
14/11:30pm CALM 0 0 - - - - - - - 20.0 1015.0 0.0
14/11:00pm NNE 2 4 - - - - - - - 21.1 1014.9 0.0
14/10:30pm CALM 0 0 - - - - - - - 20.4 1015.0 0.0
14/10:00pm CALM 0 0 - - - - - - - 21.4 1015.0 0.0
14/09:30pm CALM 0 0 - - - - - - - 23.8 1014.8 0.0
14/09:00pm NE 1 3 - - - - - - - 24.8 1014.6 0.0
14/08:30pm NE 3 5 - - - - - - - 25.1 1014.3 0.0
14/08:00pm NE 3 6 - - - - - - - 25.6 1014.1 0.0
14/07:30pm NE 4 6 - - - - - - - 25.9 1013.8 0.0
14/07:00pm NE 3 6 - - - - - - - 26.4 1013.5 0.0
14/06:30pm NE 4 10 - - - - - - - 27.4 1013.3 0.0
14/06:00pm NE 3 6 - - - - - - - 28.6 1013.2 0.0
14/05:30pm NE 8 15 - - - - - - - 29.1 1013.0 0.0
14/05:00pm NE 8 16 - - - - - - - 29.9 1012.9 0.0
14/04:30pm ENE 9 15 - - - - - - - 31.0 1012.8 0.0
14/04:00pm NE 8 14 - - - - - - - 31.3 1012.8 0.0
14/03:30pm NE 9 15 - - - - - - - 31.1 1012.7 0.0
14/03:00pm ENE 9 19 - - - - - - - 32.1 1012.9 0.0
14/02:30pm ENE 9 17 - - - - - - - 32.5 1013.3 0.0
14/02:00pm ENE 11 18 - - - - - - - 31.2 1013.9 0.0
14/01:30pm E 9 16 - - - - - - - 31.1 1014.4 0.0
14/01:00pm E 9 15 - - - - - - - 31.8 1014.8 0.0
14/12:30pm E 11 20 - - - - - - - 30.7 1015.6 0.0
14/12:00pm E 11 20 - - - - - - - 31.4 1016.1 0.0
14/11:30am E 10 18 - - - - - - - 31.0 1016.6 0.0
14/11:00am ESE 11 19 - - - - - - - 30.0 1017.1 0.0
14/10:30am ESE 13 27 - - - - - - - 28.7 1017.2 0.0
14/10:17am ESE 15 26 - - - - - - - 28.5 1017.3 0.0
14/10:00am ESE 11 21 - - - - - - - 28.2 1017.6 0.0
14/09:30am E 10 17 - - - - - - - 27.3 1017.9 0.0
14/09:00am E 9 17 - - - - - - - 26.1 1018.2 0.0
14/08:30am ESE 6 13 - - - - - - - 25.0 1018.1 0.0
14/08:00am ESE 1 3 - - - - - - - 22.6 1018.0 0.0
14/07:30am CALM 0 0 - - - - - - - 18.3 1017.7 0.0
14/07:00am CALM 0 0 - - - - - - - 15.2 1017.5 0.0
14/06:30am ESE 1 3 - - - - - - - 15.2 1017.2 0.0
14/06:00am ESE 2 3 - - - - - - - 15.4 1017.0 0.0
14/05:30am CALM 0 0 - - - - - - - 16.1 1016.6 0.0
14/05:00am CALM 0 0 - - - - - - - 16.7 1016.3 0.0
14/04:30am CALM 0 0 - - - - - - - 17.1 1016.1 0.0
14/04:00am CALM 0 0 - - - - - - - 17.3 1015.9 0.0
14/03:30am CALM 0 0 - - - - - - - 17.4 1015.7 0.0
14/03:00am CALM 0 0 - - - - - - - 17.6 1015.7 0.0
14/02:30am CALM 0 0 - - - - - - - 17.5 1015.7 0.0
14/02:00am CALM 0 0 - - - - - - - 17.9 1016.0 0.0
14/01:30am CALM 0 0 - - - - - - - 18.1 1016.2 0.0
14/01:00am CALM 0 0 - - - - - - - 18.3 1016.4 0.0
14/12:30am CALM 0 0 - - - - - - - 18.3 1016.9 0.0
14/12:00am CALM 0 0 - - - - - - - 18.6 1016.7 0.0
 
Date/Time
CST
Wind Sea
Height
m
Swell Vis
km
Cloud Weather Temp
°C
Press
hPa
Rain since
9am
mm
Dir  Spd
kts
Gust
kts
Height
m
Period
s
Dir
13/11:30pm CALM 0 0 - - - - - - - 19.3 1016.4 0.0
13/11:00pm SSE 1 5 - - - - - - - 19.6 1016.1 0.0
13/10:30pm CALM 0 0 - - - - - - - 18.7 1015.5 0.0
13/10:00pm ENE 1 2 - - - - - - - 19.4 1015.2 0.0
13/09:30pm ENE 1 3 - - - - - - - 19.1 1015.2 0.0
13/09:00pm CALM 0 0 - - - - - - - 19.8 1015.0 0.0
13/08:30pm CALM 0 0 - - - - - - - 20.1 1014.7 0.0
13/08:00pm CALM 0 0 - - - - - - - 21.2 1014.5 0.0
13/07:30pm CALM 0 0 - - - - - - - 22.5 1014.1 0.0
13/07:00pm CALM 0 0 - - - - - - - 25.1 1013.8 0.0
13/06:30pm NE 2 6 - - - - - - - 27.7 1013.6 0.0
13/06:00pm NE 5 7 - - - - - - - 29.3 1013.5 0.0
13/05:30pm NE 6 10 - - - - - - - 29.8 1013.4 0.0
13/05:00pm NE 6 12 - - - - - - - 30.5 1013.4 0.0
13/04:30pm NNE 5 11 - - - - - - - 31.0 1013.4 0.0
13/04:00pm NE 6 13 - - - - - - - 30.8 1013.4 0.0
13/03:30pm NE 8 14 - - - - - - - 31.2 1013.8 0.0
13/03:00pm NE 7 12 - - - - - - - 31.2 1014.1 0.0
13/02:30pm ENE 7 14 - - - - - - - 31.2 1014.6 0.0
13/02:00pm ENE 7 14 - - - - - - - 30.7 1015.1 0.0
13/01:30pm NE 10 17 - - - - - - - 30.0 1015.5 0.0
13/01:00pm ENE 9 18 - - - - - - - 30.2 1016.2 0.0
13/12:30pm ENE 11 19 - - - - - - - 30.7 1016.6 0.0
13/12:00pm E 10 17 - - - - - - - 30.8 1016.9 0.0
13/11:30am ESE 10 16 - - - - - - - 30.0 1017.2 0.0
13/11:00am ESE 11 23 - - - - - - - 29.3 1017.6 0.0
13/10:30am ESE 10 18 - - - - - - - 29.0 1017.8 0.0
13/10:00am E 9 17 - - - - - - - 28.1 1018.2 0.0
13/09:30am E 9 13 - - - - - - - 27.0 1018.3 0.0
13/09:00am ESE 6 11 - - - - - - - 25.9 1018.4 0.0
13/08:30am ESE 4 8 - - - - - - - 23.9 1018.4 0.0
13/08:00am SE 1 4 - - - - - - - 22.4 1018.3 0.0
13/07:30am CALM 0 3 - - - - - - - 18.3 1017.9 0.0
13/07:00am CALM 0 0 - - - - - - - 15.7 1017.5 0.0
13/06:30am CALM 0 0 - - - - - - - 15.8 1017.1 0.0
13/06:00am CALM 0 0 - - - - - - - 16.6 1016.9 0.0
13/05:30am CALM 0 0 - - - - - - - 17.7 1016.8 0.0
13/05:00am CALM 0 0 - - - - - - - 17.1 1016.5 0.0
13/04:30am CALM 0 0 - - - - - - - 17.5 1016.2 0.0
13/04:00am CALM 0 0 - - - - - - - 18.0 1016.1 0.0
13/03:30am CALM 0 0 - - - - - - - 18.7 1016.3 0.0
13/03:00am CALM 0 0 - - - - - - - 19.4 1016.5 0.0
13/02:30am CALM 0 0 - - - - - - - 20.1 1016.5 0.0
13/02:00am CALM 0 0 - - - - - - - 20.4 1016.6 0.0
13/01:30am CALM 0 0 - - - - - - - 20.5 1016.7 0.0
13/01:00am SSE 2 5 - - - - - - - 21.9 1016.9 0.0
13/12:30am E 3 7 - - - - - - - 23.6 1016.7 0.0
13/12:00am ENE 4 7 - - - - - - - 23.1 1016.6 0.0
 
Date/Time
CST
Wind Sea
Height
m
Swell Vis
km
Cloud Weather Temp
°C
Press
hPa
Rain since
9am
mm
Dir  Spd
kts
Gust
kts
Height
m
Period
s
Dir
12/11:30pm CALM 0 0 - - - - - - - 19.6 1016.6 0.0
12/11:00pm CALM 0 1 - - - - - - - 20.3 1016.4 0.0
12/10:30pm CALM 0 0 - - - - - - - 20.9 1016.2 0.0
12/10:00pm NNE 1 4 - - - - - - - 21.8 1016.3 0.0
12/09:30pm CALM 0 0 - - - - - - - 21.2 1016.1 0.0
12/09:00pm ENE 2 3 - - - - - - - 21.8 1015.8 0.0
12/08:30pm NE 2 4 - - - - - - - 22.6 1015.5 0.0
12/08:00pm CALM 0 0 - - - - - - - 22.9 1015.2 0.0
12/07:30pm CALM 0 0 - - - - - - - 24.3 1014.8 0.0

Other formats

Comma delimited format used in spreadsheet applications
http://www.bom.gov.au/fwo/IDD60701/IDD60701.99501.axf

JavaScript Object Notation format (JSON) in row-major order
http://www.bom.gov.au/fwo/IDD60701/IDD60701.99501.json

Data quality

Most of these data are generated automatically and are frequently updated. Quality checks on data are not normally performed. It is possible for incorrect values to appear. Refer to information at About Latest Weather Observations and please check the disclaimer before using these data.